Time;durP1;ratioP1;P1;durP2;ratioP2;P2;SDS_P1;SDS_P2;PMS_P1;PMS_P2;Temp;Humidity;BMP_temperature;BMP_pressure;BME280_temperature;BME280_humidity;BME280_pressure;Samples;Min_cycle;Max_cycle;Signal;HPM_P1;HPM_P2
2021/01/01 00:02:14;;;;;;;31.57;28.17;;;;;;;5.94;64.55;100323.16;6174457;28;20218;-68
2021/01/01 00:05:34;;;;;;;28.80;25.20;;;;;;;6.07;63.96;100319.75;6171794;28;20790;-70
2021/01/01 00:08:55;;;;;;;27.73;24.83;;;;;;;6.03;64.22;100327.50;6147187;28;20235;-69
2021/01/01 00:12:16;;;;;;;31.30;27.90;;;;;;;5.65;65.51;100325.66;6156995;28;20311;-68
2021/01/01 00:15:37;;;;;;;27.37;24.57;;;;;;;5.72;65.14;100328.28;6177356;28;21077;-68
2021/01/01 00:18:57;;;;;;;27.30;24.27;;;;;;;5.78;64.64;100327.44;6153271;28;20591;-68
2021/01/01 00:22:18;;;;;;;24.97;22.13;;;;;;;5.44;66.00;100321.28;6158992;28;20230;-68
2021/01/01 00:25:38;;;;;;;69.07;56.53;;;;;;;5.54;64.83;100320.44;6164177;28;20231;-68
2021/01/01 00:28:59;;;;;;;22.00;17.73;;;;;;;5.26;65.66;100337.56;6177730;28;20846;-72
2021/01/01 00:32:20;;;;;;;21.30;19.10;;;;;;;5.25;65.40;100325.50;6159862;28;20222;-70
2021/01/01 00:35:43;;;;;;;20.63;18.20;;;;;;;5.47;65.49;100331.63;6128876;28;20220;-70
2021/01/01 00:39:04;;;;;;;19.60;17.50;;;;;;;5.56;64.26;100341.13;6152013;28;20822;-72
2021/01/01 00:42:25;;;;;;;18.40;16.40;;;;;;;5.28;65.63;100333.25;6161546;28;20245;-71
2021/01/01 00:45:45;;;;;;;17.50;15.70;;;;;;;5.11;65.44;100333.16;6130137;28;20257;-70
2021/01/01 00:49:07;;;;;;;20.00;17.83;;;;;;;4.95;66.49;100341.69;6157482;28;20245;-71
2021/01/01 00:52:28;;;;;;;19.63;17.73;;;;;;;5.04;66.25;100337.44;6156148;28;20750;-71
2021/01/01 00:55:48;;;;;;;18.57;16.63;;;;;;;5.29;65.54;100330.69;6170536;28;20226;-72
2021/01/01 00:59:09;;;;;;;17.47;15.53;;;;;;;5.23;65.39;100330.63;6160456;28;20872;-72
2021/01/01 01:02:32;;;;;;;18.73;15.80;;;;;;;4.97;66.06;100335.66;6184173;28;20652;-72
2021/01/01 01:05:53;;;;;;;18.33;16.10;;;;;;;4.86;66.93;100333.00;6186476;28;20237;-72
2021/01/01 01:09:13;;;;;;;19.27;17.27;;;;;;;4.85;66.95;100331.28;6181618;28;20237;-73
2021/01/01 01:12:34;;;;;;;18.33;15.97;;;;;;;4.99;66.57;100325.38;6178674;28;20234;-73
2021/01/01 01:15:55;;;;;;;18.83;16.83;;;;;;;4.98;65.67;100326.19;6151727;28;20226;-72
2021/01/01 01:19:15;;;;;;;16.47;14.80;;;;;;;4.88;66.63;100326.13;6178359;28;20226;-72
2021/01/01 01:22:36;;;;;;;18.70;15.97;;;;;;;4.85;66.11;100326.13;6177651;28;20230;-71
2021/01/01 01:25:57;;;;;;;16.83;14.07;;;;;;;4.83;65.98;100327.84;6202172;28;20222;-73
2021/01/01 01:29:18;;;;;;;17.00;15.00;;;;;;;5.07;65.35;100332.28;6161276;28;20655;-71
2021/01/01 01:32:38;;;;;;;19.80;16.50;;;;;;;4.79;65.18;100335.53;6158253;28;20657;-72
2021/01/01 01:35:59;;;;;;;15.90;12.73;;;;;;;5.04;65.52;100334.88;6158828;28;20780;-72
2021/01/01 01:39:20;;;;;;;18.83;15.27;;;;;;;5.02;64.91;100339.16;6137842;28;20526;-72
2021/01/01 01:42:40;;;;;;;19.67;14.57;;;;;;;4.92;65.14;100338.22;6163592;28;21040;-72
2021/01/01 01:46:01;;;;;;;17.73;15.63;;;;;;;4.76;65.63;100338.97;6143135;28;20231;-72
2021/01/01 01:49:23;;;;;;;15.60;13.97;;;;;;;5.23;64.35;100338.38;6176809;28;20312;-72
2021/01/01 01:52:45;;;;;;;18.03;14.47;;;;;;;5.04;64.84;100336.56;6156731;28;20234;-72
2021/01/01 01:56:07;;;;;;;17.60;15.30;;;;;;;5.27;64.03;100342.72;6155195;28;20225;-71
2021/01/01 01:59:27;;;;;;;16.10;13.43;;;;;;;5.63;62.81;100338.56;6179145;28;20681;-71
2021/01/01 02:02:49;;;;;;;20.40;15.57;;;;;;;5.85;62.24;100343.78;6157744;28;20230;-72
2021/01/01 02:06:10;;;;;;;16.07;13.50;;;;;;;5.90;62.10;100332.63;6190257;28;20620;-71
2021/01/01 02:09:30;;;;;;;16.47;14.77;;;;;;;5.58;62.71;100345.41;6156064;28;20237;-71
2021/01/01 02:12:51;;;;;;;16.97;15.17;;;;;;;5.76;62.31;100346.34;6160864;28;20233;-71
2021/01/01 02:16:13;;;;;;;16.73;14.47;;;;;;;5.96;61.85;100357.66;6184319;28;20252;-71
2021/01/01 02:19:34;;;;;;;19.77;16.03;;;;;;;5.49;63.42;100356.59;6141752;28;20254;-72
2021/01/01 02:22:55;;;;;;;19.50;14.97;;;;;;;5.40;63.54;100353.09;6164454;28;20238;-72
2021/01/01 02:26:17;;;;;;;18.53;15.70;;;;;;;5.89;62.42;100353.28;6145865;28;20325;-70
2021/01/01 02:29:38;;;;;;;21.70;15.17;;;;;;;5.73;62.54;100349.78;6166079;28;20230;-71
2021/01/01 02:32:58;;;;;;;16.27;14.53;;;;;;;5.99;61.86;100352.50;6160933;28;20612;-71
2021/01/01 02:36:18;;;;;;;19.57;15.57;;;;;;;6.07;61.72;100355.94;6150918;28;20252;-71
2021/01/01 02:39:40;;;;;;;17.83;16.03;;;;;;;5.62;62.91;100360.09;6189211;28;20229;-72
2021/01/01 02:43:01;;;;;;;19.20;16.50;;;;;;;5.33;64.42;100365.09;6159221;28;20237;-72
2021/01/01 02:46:21;;;;;;;17.03;14.97;;;;;;;5.68;62.78;100360.13;6182551;28;20324;-72
2021/01/01 02:49:42;;;;;;;20.40;16.87;;;;;;;5.47;63.46;100362.63;6163168;28;20246;-72
2021/01/01 02:53:03;;;;;;;19.63;17.37;;;;;;;5.46;64.10;100360.88;6175862;28;20229;-72
2021/01/01 02:56:25;;;;;;;17.80;14.97;;;;;;;5.58;63.71;100360.91;6145856;28;20246;-72
2021/01/01 02:59:45;;;;;;;18.23;16.30;;;;;;;5.36;64.13;100364.28;6174835;28;20222;-72
2021/01/01 03:03:06;;;;;;;19.30;16.17;;;;;;;5.25;64.79;100362.53;6177868;28;20225;-72
2021/01/01 03:06:27;;;;;;;20.03;17.20;;;;;;;5.39;64.29;100356.53;6156875;28;20242;-72
2021/01/01 03:09:47;;;;;;;20.60;16.27;;;;;;;5.25;64.89;100361.63;6159938;28;20226;-72
2021/01/01 03:13:08;;;;;;;18.50;16.27;;;;;;;5.51;63.87;100356.59;6151462;28;20277;-72
2021/01/01 03:16:29;;;;;;;20.00;16.30;;;;;;;5.64;63.56;100357.50;6146508;28;20695;-72
2021/01/01 03:19:50;;;;;;;21.83;18.13;;;;;;;5.91;62.67;100360.19;6148181;28;20554;-72
2021/01/01 03:23:10;;;;;;;19.90;17.63;;;;;;;5.76;62.97;100356.69;6157507;28;20254;-72
2021/01/01 03:26:30;;;;;;;20.37;17.60;;;;;;;5.85;63.52;100361.88;6136686;28;20247;-72
2021/01/01 03:29:51;;;;;;;19.70;16.30;;;;;;;5.69;63.61;100348.91;6180478;28;20739;-72
2021/01/01 03:33:12;;;;;;;19.50;17.50;;;;;;;5.78;63.28;100358.44;6158920;28;20253;-73
2021/01/01 03:36:32;;;;;;;19.93;16.17;;;;;;;5.60;63.53;100361.78;6162200;28;20246;-73
2021/01/01 03:39:54;;;;;;;19.83;17.73;;;;;;;5.48;64.20;100360.03;6181643;28;20353;-72
2021/01/01 03:43:15;;;;;;;25.40;20.90;;;;;;;5.52;64.08;100353.16;6152841;28;20242;-72
2021/01/01 03:46:36;;;;;;;23.50;20.00;;;;;;;5.64;64.30;100360.97;6156043;28;20226;-73
2021/01/01 03:49:56;;;;;;;18.97;16.90;;;;;;;6.25;62.37;100349.09;6190584;28;20245;-71
2021/01/01 03:53:17;;;;;;;20.27;17.37;;;;;;;6.25;62.04;100354.25;6150584;28;20789;-72
2021/01/01 03:56:37;;;;;;;20.83;17.80;;;;;;;6.33;61.86;100357.72;6185189;28;20233;-72
2021/01/01 03:59:58;;;;;;;23.03;19.87;;;;;;;6.12;62.22;100353.38;6169609;28;20230;-72
2021/01/01 04:03:19;;;;;;;25.57;19.17;;;;;;;5.77;63.49;100355.84;6161158;28;20547;-72
2021/01/01 04:06:39;;;;;;;23.03;17.50;;;;;;;5.80;63.34;100361.03;6171835;28;20241;-72
2021/01/01 04:10:00;;;;;;;26.87;20.03;;;;;;;5.99;63.23;100352.50;6146823;28;20238;-72
2021/01/01 04:13:20;;;;;;;24.27;18.70;;;;;;;6.08;62.72;100357.66;6162550;28;20233;-72
2021/01/01 04:16:44;;;;;;;27.17;20.50;;;;;;;6.21;62.12;100362.88;6187340;28;20522;-72
2021/01/01 04:20:07;;;;;;;26.87;20.50;;;;;;;5.97;63.21;100354.22;6174187;28;20225;-71
2021/01/01 04:23:27;;;;;;;26.57;19.97;;;;;;;5.81;63.66;100361.00;6191118;28;20309;-72
2021/01/01 04:26:48;;;;;;;31.30;23.40;;;;;;;5.79;63.54;100359.28;6165184;28;20255;-71
2021/01/01 04:30:10;;;;;;;24.93;21.37;;;;;;;5.63;64.13;100373.88;6167895;28;20233;-72
2021/01/01 04:33:30;;;;;;;27.53;22.70;;;;;;;5.49;64.46;100360.91;6183358;28;20225;-72
2021/01/01 04:36:51;;;;;;;28.17;20.87;;;;;;;5.69;63.59;100366.16;6186278;28;20668;-71
2021/01/01 04:40:12;;;;;;;28.63;22.73;;;;;;;5.41;64.39;100368.63;6162436;28;20233;-71
2021/01/01 04:43:34;;;;;;;25.97;23.17;;;;;;;5.68;63.89;100364.41;6191657;28;20230;-72
2021/01/01 04:46:56;;;;;;;31.90;23.40;;;;;;;5.66;64.12;100368.69;6143955;28;20739;-72
2021/01/01 04:50:17;;;;;;;29.70;23.10;;;;;;;5.93;63.06;100362.75;6140860;28;20238;-72
2021/01/01 04:53:39;;;;;;;26.60;23.27;;;;;;;5.96;62.82;100373.16;6168306;28;20226;-72
2021/01/01 04:57:00;;;;;;;34.03;26.73;;;;;;;5.95;62.72;100370.53;6140008;28;20230;-72
2021/01/01 05:00:21;;;;;;;32.87;24.17;;;;;;;5.32;65.31;100363.41;6189548;28;20226;-72
2021/01/01 05:03:42;;;;;;;35.10;24.83;;;;;;;5.51;64.46;100364.34;6166401;28;20227;-72
2021/01/01 05:07:03;;;;;;;34.07;27.37;;;;;;;5.07;66.21;100367.56;6148046;28;20234;-72
2021/01/01 05:10:24;;;;;;;30.70;24.20;;;;;;;5.49;65.05;100371.25;6166722;28;20253;-71
2021/01/01 05:13:54;;;;;;;38.13;26.53;;;;;;;5.63;64.84;100376.47;6183840;28;20741;-72
2021/01/01 05:17:15;;;;;;;34.37;25.07;;;;;;;5.78;64.26;100367.88;6156637;28;20455;-72
2021/01/01 05:20:35;;;;;;;34.43;24.63;;;;;;;5.63;64.47;100379.03;6176942;28;20242;-73
2021/01/01 05:23:57;;;;;;;34.50;25.00;;;;;;;5.50;64.53;100378.97;6177827;28;20231;-72
2021/01/01 05:27:19;;;;;;;30.17;24.93;;;;;;;5.81;64.43;100379.09;6183074;28;20222;-72
2021/01/01 05:30:39;;;;;;;36.13;26.87;;;;;;;6.06;63.23;100385.22;6164492;28;20222;-72
2021/01/01 05:34:02;;;;;;;36.47;26.43;;;;;;;5.94;63.70;100379.16;6161659;28;20666;-73
2021/01/01 05:37:27;;;;;;;41.57;28.90;;;;;;;5.56;64.59;100377.28;6164493;28;20703;-73
2021/01/01 05:40:49;;;;;;;36.67;26.73;;;;;;;5.82;64.51;100382.56;6163762;28;20322;-72
2021/01/01 05:44:15;;;;;;;40.90;28.60;;;;;;;5.93;63.95;100378.28;6154055;28;20238;-72
2021/01/01 05:47:36;;;;;;;40.37;29.80;;;;;;;6.15;63.46;100386.13;6140962;28;20238;-72
2021/01/01 05:51:05;;;;;;;39.00;29.07;;;;;;;5.69;64.59;100394.56;6171302;28;20245;-73
2021/01/01 05:54:26;;;;;;;39.07;28.03;;;;;;;5.82;64.34;100390.31;6188384;28;20245;-71
2021/01/01 05:57:46;;;;;;;41.67;29.67;;;;;;;5.72;64.75;100392.00;6188749;28;20476;-71
2021/01/01 06:01:08;;;;;;;36.87;27.17;;;;;;;5.61;64.98;100397.13;6172079;28;20228;-72
2021/01/01 06:04:30;;;;;;;36.43;28.47;;;;;;;5.77;64.69;100408.38;6155928;28;20235;-72
2021/01/01 06:07:53;;;;;;;36.17;27.47;;;;;;;5.61;65.02;100412.63;6165802;28;20492;-72
2021/01/01 06:11:16;;;;;;;32.93;26.80;;;;;;;5.61;65.23;100407.44;6159710;28;20239;-73
2021/01/01 06:14:40;;;;;;;35.17;26.97;;;;;;;5.87;64.03;100419.59;6164301;28;20691;-72
2021/01/01 06:18:06;;;;;;;32.77;25.77;;;;;;;6.11;63.27;100418.88;6140211;28;20235;-72
2021/01/01 06:21:33;;;;;;;30.57;24.77;;;;;;;6.30;62.82;100424.94;6184694;28;20241;-71
2021/01/01 06:24:54;;;;;;;28.80;23.87;;;;;;;5.98;63.51;100425.72;6185728;28;21607;-71
2021/01/01 06:28:15;;;;;;;28.60;23.63;;;;;;;6.22;63.21;100427.53;6167631;28;20229;-72
2021/01/01 06:31:37;;;;;;;30.80;24.17;;;;;;;6.36;62.80;100431.84;6172739;28;20230;-71
2021/01/01 06:35:12;;;;;;;33.27;24.93;;;;;;;5.92;63.68;100434.28;6155270;28;20226;-72
2021/01/01 06:38:40;;;;;;;29.50;22.80;;;;;;;5.99;63.57;100434.31;6174036;28;20234;-72
2021/01/01 06:42:00;;;;;;;29.47;24.80;;;;;;;6.25;63.19;100443.03;6164394;28;20254;-73
2021/01/01 06:45:47;;;;;;;36.30;23.33;;;;;;;6.44;62.42;100441.34;6181421;28;22793;-72
2021/01/01 06:49:09;;;;;;;29.37;24.57;;;;;;;6.39;62.32;100445.66;6168118;28;20246;-72
2021/01/01 06:52:30;;;;;;;32.07;24.93;;;;;;;6.28;62.87;100448.22;6187564;28;20225;-72
2021/01/01 06:55:51;;;;;;;29.20;24.90;;;;;;;6.50;62.25;100453.44;6183855;28;20346;-71
2021/01/01 06:59:13;;;;;;;30.50;23.87;;;;;;;6.64;61.45;100445.69;6170459;28;20230;-71
2021/01/01 07:02:33;;;;;;;29.90;23.23;;;;;;;6.63;61.67;100454.31;6162271;28;20230;-71
2021/01/01 07:05:55;;;;;;;32.73;23.53;;;;;;;6.15;62.80;100453.38;6140889;28;20231;-72
2021/01/01 07:09:35;;;;;;;31.93;23.87;;;;;;;5.77;64.49;100457.47;6133127;28;20234;-72
2021/01/01 07:13:17;;;;;;;31.17;24.90;;;;;;;5.17;66.82;100451.09;6177396;28;20234;-72
2021/01/01 07:16:42;;;;;;;32.87;24.50;;;;;;;5.63;65.34;100457.41;6154596;28;20328;-72
2021/01/01 07:20:03;;;;;;;32.97;24.77;;;;;;;5.65;65.19;100463.44;6187490;28;20528;-72
2021/01/01 07:23:24;;;;;;;31.93;24.33;;;;;;;5.32;66.03;100471.84;6189571;28;20616;-73
2021/01/01 07:26:45;;;;;;;27.60;23.40;;;;;;;5.31;66.12;100464.94;6165740;28;20265;-72
2021/01/01 07:30:11;;;;;;;28.70;22.83;;;;;;;5.87;64.38;100471.28;6185987;28;20684;-72
2021/01/01 07:33:32;;;;;;;32.23;24.03;;;;;;;6.18;63.19;100480.06;6178399;28;20317;-72
2021/01/01 07:36:53;;;;;;;34.40;24.43;;;;;;;6.05;63.77;100492.09;6157859;28;20232;-72
2021/01/01 07:40:14;;;;;;;29.77;24.60;;;;;;;6.14;63.44;100485.22;6181595;28;20242;-72
2021/01/01 07:43:36;;;;;;;44.93;28.57;;;;;;;4.86;67.25;100494.72;6186220;28;20241;-73
2021/01/01 07:46:57;;;;;;;36.70;26.93;;;;;;;4.57;68.93;100497.00;6183246;28;20242;-73
2021/01/01 07:50:19;;;;;;;35.17;26.03;;;;;;;4.63;68.81;100502.22;6188321;28;20229;-72
2021/01/01 07:53:39;;;;;;;32.23;26.37;;;;;;;5.24;66.52;100505.38;6166827;28;20648;-72
2021/01/01 07:57:05;;;;;;;35.10;28.07;;;;;;;4.89;67.53;100503.34;6183439;28;20511;-72
2021/01/01 08:00:30;;;;;;;35.53;26.40;;;;;;;4.10;69.80;100509.38;6183653;28;20242;-72
2021/01/01 08:03:51;;;;;;;32.30;25.33;;;;;;;4.20;70.30;100510.34;6184165;28;20530;-71
2021/01/01 08:07:20;;;;;;;33.90;24.80;;;;;;;4.64;68.48;100512.56;6180637;28;20230;-73
2021/01/01 08:10:43;;;;;;;31.87;25.00;;;;;;;5.23;66.89;100519.09;6163315;28;20260;-71
2021/01/01 08:14:03;;;;;;;31.13;25.43;;;;;;;5.60;65.44;100516.78;6186350;28;20230;-73
2021/01/01 08:17:28;;;;;;;33.80;25.37;;;;;;;5.60;65.22;100518.50;6174722;28;20234;-72
2021/01/01 08:20:56;;;;;;;31.50;25.40;;;;;;;5.84;64.01;100513.50;6176153;28;20226;-72
2021/01/01 08:24:17;;;;;;;33.63;24.93;;;;;;;5.99;63.71;100517.94;6171628;28;20238;-70
2021/01/01 08:27:39;;;;;;;33.30;26.80;;;;;;;6.10;63.11;100524.00;6168217;28;20230;-72
2021/01/01 08:31:02;;;;;;;34.90;26.33;;;;;;;6.16;62.95;100530.06;6147704;28;20227;-72
2021/01/01 08:34:23;;;;;;;37.57;25.80;;;;;;;6.44;62.32;100521.56;6158834;28;20703;-72
2021/01/01 08:37:44;;;;;;;33.13;26.87;;;;;;;6.30;62.23;100525.78;6176154;28;20249;-71
2021/01/01 08:41:05;;;;;;;34.63;28.37;;;;;;;5.79;64.06;100525.53;6180044;28;20234;-72
2021/01/01 08:44:25;;;;;;;40.60;32.43;;;;;;;5.71;64.65;100524.63;6152412;28;21806;-72
2021/01/01 08:47:48;;;;;;;39.67;31.53;;;;;;;5.09;66.25;100543.97;6168831;28;20226;-72
2021/01/01 08:51:09;;;;;;;36.53;30.47;;;;;;;5.57;65.43;100534.88;6179207;28;20340;-72
2021/01/01 08:54:30;;;;;;;40.07;32.00;;;;;;;5.74;64.95;100540.16;6179436;28;20230;-73
2021/01/01 08:57:50;;;;;;;43.00;32.63;;;;;;;5.92;64.30;100541.97;6159215;28;21955;-71
2021/01/01 09:01:18;;;;;;;37.90;31.27;;;;;;;5.80;64.78;100547.09;6181756;28;20222;-72
2021/01/01 09:04:40;;;;;;;36.60;29.50;;;;;;;5.98;64.27;100552.38;6153805;28;20229;-73
2021/01/01 09:08:09;;;;;;;39.40;30.77;;;;;;;5.81;64.64;100543.63;6180604;28;20249;-71
2021/01/01 09:11:29;;;;;;;37.43;28.80;;;;;;;5.82;64.47;100545.38;6179697;28;20229;-72
2021/01/01 09:14:51;;;;;;;41.27;31.73;;;;;;;5.21;66.56;100551.78;6185664;28;20229;-72
2021/01/01 09:18:12;;;;;;;41.50;32.20;;;;;;;5.04;67.89;100563.69;6163718;28;20253;-72
2021/01/01 09:21:33;;;;;;;40.87;31.47;;;;;;;5.18;66.98;100566.41;6176260;28;20355;-72
2021/01/01 09:24:55;;;;;;;41.20;32.83;;;;;;;5.49;66.09;100564.97;6201360;28;20618;-73
2021/01/01 09:28:17;;;;;;;44.57;33.13;;;;;;;5.18;67.02;100567.28;6206047;28;20241;-72
2021/01/01 09:31:39;;;;;;;45.60;33.43;;;;;;;5.10;67.33;100566.34;6214268;28;20312;-72
2021/01/01 09:34:59;;;;;;;44.73;34.00;;;;;;;4.79;68.59;100567.72;6209719;28;20228;-72
2021/01/01 09:38:20;;;;;;;39.33;30.87;;;;;;;5.18;66.78;100569.84;6194492;28;20240;-72
2021/01/01 09:41:47;;;;;;;41.50;30.40;;;;;;;5.53;65.71;100570.16;6203626;28;20308;-72
2021/01/01 09:45:08;;;;;;;36.63;29.57;;;;;;;5.90;69.86;100565.22;6204267;28;20258;-73
2021/01/01 09:48:29;;;;;;;43.00;32.93;;;;;;;5.46;65.95;100564.91;6209580;28;20233;-72
2021/01/01 09:51:50;;;;;;;45.10;34.07;;;;;;;5.14;67.51;100575.84;6206892;28;20237;-72
2021/01/01 09:55:13;;;;;;;48.70;35.57;;;;;;;5.20;66.77;100577.63;6208191;28;20242;-72
2021/01/01 09:58:37;;;;;;;41.27;33.07;;;;;;;5.25;66.80;100574.25;6217082;28;20261;-72
2021/01/01 10:01:58;;;;;;;39.67;29.53;;;;;;;5.81;65.19;100569.47;6227726;28;20590;-72
2021/01/01 10:05:18;;;;;;;36.90;31.37;;;;;;;5.70;64.82;100572.84;6211807;28;20228;-72
2021/01/01 10:08:38;;;;;;;35.90;28.40;;;;;;;5.25;66.48;100578.50;6185953;28;20242;-72
2021/01/01 10:12:03;;;;;;;39.60;30.50;;;;;;;5.66;65.01;100575.38;6181198;28;20699;-71
2021/01/01 10:15:26;;;;;;;37.93;28.87;;;;;;;5.89;63.99;100575.53;6186069;28;20230;-72
2021/01/01 10:18:46;;;;;;;35.83;30.43;;;;;;;5.94;63.96;100576.44;6184610;28;20272;-72
2021/01/01 10:22:07;;;;;;;40.60;33.80;;;;;;;5.30;65.56;100590.63;6197608;28;20626;-72
2021/01/01 10:25:28;;;;;;;41.07;32.37;;;;;;;5.77;64.27;100583.22;6209239;28;20253;-71
2021/01/01 10:28:48;;;;;;;41.50;32.87;;;;;;;5.58;64.32;100577.91;6205930;28;20312;-73
2021/01/01 10:32:11;;;;;;;45.60;35.67;;;;;;;5.91;63.82;100574.72;6208681;28;20226;-71
2021/01/01 10:35:31;;;;;;;42.70;35.00;;;;;;;6.06;62.87;100576.53;6206996;28;20225;-71
2021/01/01 10:38:52;;;;;;;44.37;31.40;;;;;;;5.94;63.30;100575.59;6213627;28;20392;-71
2021/01/01 10:42:12;;;;;;;42.80;34.07;;;;;;;5.62;64.24;100579.69;6212995;28;20554;-72
2021/01/01 10:45:36;;;;;;;35.70;30.43;;;;;;;5.95;63.85;100567.84;6211794;28;20232;-71
2021/01/01 10:48:59;;;;;;;39.70;31.37;;;;;;;6.34;62.52;100581.00;6212185;28;20241;-71
2021/01/01 10:52:20;;;;;;;36.13;31.30;;;;;;;6.55;61.98;100581.06;6203919;28;20222;-73
2021/01/01 10:55:41;;;;;;;39.93;31.73;;;;;;;6.65;61.72;100581.97;6187567;28;20230;-72
2021/01/01 10:59:02;;;;;;;30.20;27.00;;;;;;;6.29;62.51;100578.41;6189968;28;20226;-72
2021/01/01 11:02:23;;;;;;;29.20;24.87;;;;;;;6.00;63.06;100576.50;6192348;28;20226;-72
2021/01/01 11:05:44;;;;;;;33.20;25.70;;;;;;;5.72;64.45;100576.31;6205583;28;20236;-72
2021/01/01 11:09:04;;;;;;;32.57;25.63;;;;;;;5.75;63.90;100575.47;6188655;28;20265;-72
2021/01/01 11:12:28;;;;;;;28.80;22.43;;;;;;;5.60;64.96;100573.63;6187487;28;20230;-71
2021/01/01 12:25:13;;;;;;;32.70;24.50;;;;;;;6.29;64.32;100555.97;6186121;28;20221;-72
2021/01/01 12:28:36;;;;;;;33.50;24.03;;;;;;;6.22;64.74;100554.25;6196635;28;20233;-72
2021/01/01 12:31:58;;;;;;;31.70;24.33;;;;;;;6.35;64.40;100555.13;6204848;28;20237;-72
2021/01/01 12:35:20;;;;;;;29.20;24.23;;;;;;;6.05;65.61;100553.28;6204647;28;20241;-71
2021/01/01 12:38:40;;;;;;;33.90;23.20;;;;;;;5.78;66.61;100553.94;6206537;28;20256;-72
2021/01/01 12:42:02;;;;;;;29.53;23.73;;;;;;;5.91;66.21;100550.56;6208391;28;20312;-72
2021/01/01 12:45:23;;;;;;;27.37;22.60;;;;;;;6.02;65.93;100548.94;6216933;28;20229;-71
2021/01/01 12:48:43;;;;;;;25.83;21.73;;;;;;;6.55;64.25;100550.03;6211192;28;20229;-70
2021/01/01 12:52:05;;;;;;;27.50;23.90;;;;;;;6.42;64.52;100549.13;6204161;28;20268;-70
2021/01/01 12:55:26;;;;;;;30.47;25.93;;;;;;;6.31;65.07;100556.84;6200659;28;20237;-71
2021/01/01 12:58:47;;;;;;;31.97;24.90;;;;;;;6.72;63.64;100551.81;6214874;28;20883;-70
2021/01/01 13:02:08;;;;;;;29.20;25.70;;;;;;;6.73;63.73;100554.41;6213114;28;20326;-71
2021/01/01 13:05:29;;;;;;;32.70;26.07;;;;;;;6.00;66.40;100555.84;6214011;28;20320;-70
2021/01/01 13:08:51;;;;;;;31.47;26.27;;;;;;;6.25;65.86;100555.97;6211297;28;20230;-73
2021/01/01 13:12:11;;;;;;;32.07;26.10;;;;;;;6.31;66.22;100556.00;6204254;28;20245;-73
2021/01/01 13:15:32;;;;;;;28.60;25.10;;;;;;;6.23;65.98;100561.13;6206352;28;20232;-73
2021/01/01 13:18:53;;;;;;;28.60;23.93;;;;;;;6.35;65.99;100565.47;6208821;28;20229;-73
2021/01/01 13:22:14;;;;;;;30.70;24.93;;;;;;;6.32;65.89;100555.16;6199479;28;20677;-73
2021/01/01 13:25:37;;;;;;;29.20;25.33;;;;;;;6.17;66.77;100558.50;6184715;28;20241;-74
2021/01/01 13:29:00;;;;;;;29.70;24.77;;;;;;;5.88;67.52;100555.75;6186976;28;20261;-72
2021/01/01 13:32:22;;;;;;;33.43;24.53;;;;;;;6.32;66.14;100565.50;6200414;28;20233;-73
2021/01/01 13:35:44;;;;;;;31.63;24.13;;;;;;;6.21;66.49;100564.56;6187678;28;20661;-73
2021/01/01 13:39:04;;;;;;;31.30;23.77;;;;;;;6.22;66.46;100562.00;6182016;28;20230;-73
2021/01/01 13:42:25;;;;;;;31.27;25.13;;;;;;;6.32;66.51;100565.50;6189094;28;20616;-74
2021/01/01 13:45:46;;;;;;;29.33;23.13;;;;;;;6.50;65.71;100567.28;6194301;28;20237;-70
2021/01/01 13:49:07;;;;;;;30.07;23.83;;;;;;;6.39;66.11;100569.81;6198654;28;20241;-68
2021/01/01 13:52:28;;;;;;;28.13;24.80;;;;;;;6.53;65.47;100566.41;6185090;28;20233;-69
2021/01/01 13:55:48;;;;;;;29.37;25.50;;;;;;;6.16;66.53;100572.28;6197314;28;20233;-72
2021/01/01 13:59:10;;;;;;;32.43;26.57;;;;;;;6.29;66.07;100568.91;6162636;28;20237;-71
2021/01/01 14:02:30;;;;;;;33.23;27.13;;;;;;;6.00;66.87;100566.19;6183453;28;20234;-70
2021/01/01 14:05:51;;;;;;;32.50;26.30;;;;;;;5.78;67.73;100579.78;6202937;28;20265;-68
2021/01/01 14:09:11;;;;;;;29.77;25.23;;;;;;;5.97;66.69;100573.03;6188650;28;20249;-70
2021/01/01 14:12:32;;;;;;;30.80;25.07;;;;;;;5.97;67.19;100576.53;6183203;28;20234;-71
2021/01/01 14:15:53;;;;;;;27.20;22.97;;;;;;;6.27;66.27;100580.13;6187095;28;20251;-71
2021/01/01 14:19:14;;;;;;;30.10;23.80;;;;;;;6.25;65.61;100581.81;6181507;28;20509;-70
2021/01/01 14:22:35;;;;;;;27.17;23.23;;;;;;;5.77;67.72;100583.22;6177860;28;20245;-70
2021/01/01 14:25:56;;;;;;;27.00;22.77;;;;;;;6.00;66.49;100584.28;6188732;28;20324;-71
2021/01/01 14:29:16;;;;;;;28.90;21.27;;;;;;;6.21;65.79;100582.69;6182719;28;20258;-71
2021/01/01 14:32:38;;;;;;;31.37;22.13;;;;;;;6.13;65.92;100586.91;6176895;28;20238;-70
2021/01/01 14:35:59;;;;;;;28.40;21.40;;;;;;;5.96;66.69;100585.13;6178832;28;20678;-71
2021/01/01 14:39:19;;;;;;;26.67;22.47;;;;;;;5.88;67.45;100594.50;6195033;28;20226;-71
2021/01/01 14:42:40;;;;;;;27.77;22.83;;;;;;;6.14;66.47;100589.50;6180290;28;20242;-72
2021/01/01 14:46:01;;;;;;;27.83;22.80;;;;;;;6.28;65.79;100592.16;6188087;28;20321;-70
2021/01/01 14:49:23;;;;;;;26.00;19.97;;;;;;;6.48;65.20;100587.97;6189611;28;20368;-70
2021/01/01 14:52:44;;;;;;;23.90;20.40;;;;;;;6.20;65.91;100593.84;6209761;28;20236;-70
2021/01/01 14:56:05;;;;;;;25.13;20.50;;;;;;;6.45;65.14;100590.53;6209833;28;20264;-71
2021/01/01 14:59:26;;;;;;;26.57;21.20;;;;;;;6.26;65.91;100593.88;6189712;28;20232;-70
2021/01/01 15:02:46;;;;;;;24.90;22.27;;;;;;;6.15;66.10;100599.03;6184161;28;20844;-70
2021/01/01 15:06:08;;;;;;;23.33;20.77;;;;;;;5.92;67.02;100604.00;6195859;28;20233;-70
2021/01/01 15:09:29;;;;;;;22.73;20.00;;;;;;;5.94;67.01;100602.31;6206941;28;20237;-70
2021/01/01 15:12:49;;;;;;;26.07;19.97;;;;;;;6.53;65.49;100605.22;6207020;28;20500;-70
2021/01/01 15:16:10;;;;;;;29.60;21.27;;;;;;;5.98;66.86;100617.00;6203459;28;20265;-75
2021/01/01 15:19:31;;;;;;;22.27;19.00;;;;;;;5.95;67.16;100614.38;6204668;28;20229;-74
2021/01/01 15:22:52;;;;;;;22.30;18.77;;;;;;;6.21;66.20;100606.81;6206735;28;20224;-73
2021/01/01 15:26:17;;;;;;;22.63;18.30;;;;;;;6.35;66.11;100611.19;6209188;28;20236;-70
2021/01/01 15:29:38;;;;;;;23.30;17.87;;;;;;;6.55;65.38;100616.44;6211737;28;20229;-69
2021/01/01 15:32:58;;;;;;;23.83;20.37;;;;;;;6.07;67.10;100626.56;6212181;28;20316;-69
2021/01/01 15:36:19;;;;;;;26.70;19.53;;;;;;;6.03;66.98;100637.69;6211019;28;20228;-71
2021/01/01 15:39:41;;;;;;;23.40;19.87;;;;;;;6.34;66.65;100627.53;6214134;28;20316;-72
2021/01/01 15:43:01;;;;;;;25.80;21.33;;;;;;;6.35;66.45;100630.16;6187609;28;20515;-70
2021/01/01 15:46:22;;;;;;;27.07;21.37;;;;;;;5.96;67.80;100634.22;6165046;28;20349;-76
2021/01/01 15:49:42;;;;;;;27.53;23.03;;;;;;;6.17;67.54;100630.06;6186656;28;20522;-78
2021/01/01 15:53:03;;;;;;;24.57;20.83;;;;;;;6.52;66.38;100638.00;6189209;28;20221;-73
2021/01/01 15:56:25;;;;;;;30.20;22.67;;;;;;;5.75;69.41;100626.28;6190126;28;21811;-76
2021/01/01 15:59:46;;;;;;;30.30;24.53;;;;;;;6.06;68.05;100635.16;6193854;28;20341;-71
2021/01/01 16:03:06;;;;;;;25.97;21.07;;;;;;;6.40;67.28;100633.63;6167066;28;20900;-70
2021/01/01 16:06:26;;;;;;;26.43;22.53;;;;;;;6.09;67.93;100643.78;6202256;28;20236;-71
2021/01/01 16:09:47;;;;;;;30.70;23.97;;;;;;;5.97;68.52;100635.09;6212645;28;20229;-74
2021/01/01 16:13:08;;;;;;;31.30;24.07;;;;;;;5.99;68.68;100647.19;6211318;28;20316;-72
2021/01/01 16:16:37;;;;;;;28.53;24.53;;;;;;;6.17;68.12;100649.03;6190927;28;20236;-74
2021/01/01 16:19:57;;;;;;;34.63;26.73;;;;;;;5.83;68.94;100645.28;6208699;28;20237;-74
2021/01/01 16:23:18;;;;;;;31.90;25.47;;;;;;;6.02;68.68;100646.34;6186791;28;20253;-71
2021/01/01 16:26:40;;;;;;;30.50;24.70;;;;;;;6.04;68.70;100642.88;6197851;28;20577;-75
2021/01/01 16:30:03;;;;;;;38.87;28.33;;;;;;;6.30;67.80;100639.59;6207853;28;20240;-73
2021/01/01 16:33:25;;;;;;;34.33;25.50;;;;;;;6.55;66.73;100638.00;6195223;28;20238;-73
2021/01/01 16:36:46;;;;;;;37.40;25.37;;;;;;;6.42;67.28;100637.09;6196783;28;20507;-73